Huvudsida
METAR-TAF:

METAR-TAF

Flygplatser :

Victoria, Mahé, Seychellerna

latitud: 04-40S, longitud: 055-31E, höjd: 3 m

Aktuellt väderrapport

Denna rapport gjordes för 1 timme och 0 minuter sedan, klockan 12:00 UTC
Vind 4 kt från väst/nordväst
Temperatur 27°C
Fuktighet 89%
Tryck 1009 hPa
Sikt 10 km eller mer
Få moln på en höjd av 1900 ft, Cumulonimbus.
Spridda moln på en höjd av 2700 ft

METAR: FSIA 221200Z 30004KT 9999 FEW019CB SCT027 27/25 Q1009 NOSIG

Tid: 17:00 (13:00 UTC)

Väderprognos

Denna rapport gjordes för 1 timme och 59 minuter sedan, klockan 11:01 UTC
Prognos gäller från 22 kl. 12 UTC till 23 kl. 12 UTC
Vind 3 kt varierande vindriktning
Sikt 10 km eller mer
Få moln på en höjd av 1900 ft, Cumulonimbus.
Spridda moln på en höjd av 2100 ft
Temporärt
från 22 kl. 12 UTC till 22 kl. 18 UTC
Sikt: 8000 m
Få moln på en höjd av 1700 ft, Cumulonimbus.
Brutna moln på en höjd av 1800 ft
regnskurar,

TAF: FSIA 221101Z 2212/2312 VRB03KT 9999 FEW019CB SCT021 TEMPO 2212/2218 8000 SHRA FEW017CB BKN018

Aktuella väderrapporter och prognoser från 4000 flygplatser (METAR- och TAF-rapporter).

De tillgängliga stationerna syns som gula och röda prickar på kartan.

För musen över prickarna för att se namnen på stationerna.

Klicka sedan för att få väderrapporter och prognoser.

För att ändra kartan: Klicka på de gröna knapparna med ett svart kors på för att zooma in; den gröna knappen med ett streck på för att zooma ut; eller på de gröna pilarna för angränsande kartor.


METAR-TAF: